Time;durP1;ratioP1;P1;durP2;ratioP2;P2;SDS_P1;SDS_P2;PMS_P1;PMS_P2;Temp;Humidity;BMP_temperature;BMP_pressure;BME280_temperature;BME280_humidity;BME280_pressure;Samples;Min_cycle;Max_cycle;Signal;HPM_P1;HPM_P2
2020/12/29 00:02:22;;;;;;;2.13;1.83;;;3.70;99.90;;;;;;5012783;28;20298;-83
2020/12/29 00:04:49;;;;;;;3.83;1.70;;;3.70;99.90;;;;;;5013195;28;20243;-83
2020/12/29 00:07:16;;;;;;;2.88;1.88;;;3.70;99.90;;;;;;5011983;28;20203;-86
2020/12/29 00:09:42;;;;;;;1.40;1.30;;;3.80;99.90;;;;;;5013046;28;20235;-84
2020/12/29 00:12:08;;;;;;;3.72;1.65;;;3.80;99.90;;;;;;5013279;28;20399;-84
2020/12/29 00:14:35;;;;;;;1.20;1.10;;;4.00;99.90;;;;;;5012982;28;20242;-83
2020/12/29 00:17:02;;;;;;;4.97;2.22;;;4.10;99.90;;;;;;5012769;28;20203;-83
2020/12/29 00:19:29;;;;;;;2.47;1.70;;;4.30;99.90;;;;;;5013091;28;20208;-84
2020/12/29 00:21:56;;;;;;;3.63;2.30;;;4.40;99.90;;;;;;5011922;28;20215;-84
2020/12/29 00:24:22;;;;;;;1.15;1.02;;;4.40;99.90;;;;;;5013013;28;20214;-82
2020/12/29 00:26:48;;;;;;;1.85;1.50;;;4.40;99.90;;;;;;5013155;28;20207;-83
2020/12/29 00:29:15;;;;;;;2.25;1.65;;;4.40;99.90;;;;;;5012963;28;20242;-82
2020/12/29 00:31:41;;;;;;;4.55;1.83;;;4.30;99.90;;;;;;5012876;28;20290;-82
2020/12/29 00:34:09;;;;;;;3.00;2.55;;;4.30;99.90;;;;;;5012509;28;20302;-82
2020/12/29 00:36:36;;;;;;;2.67;1.52;;;4.20;99.90;;;;;;5011860;28;20208;-82
2020/12/29 00:39:04;;;;;;;2.67;1.60;;;4.20;99.90;;;;;;5012882;28;20230;-82
2020/12/29 00:41:30;;;;;;;1.67;1.23;;;4.30;99.90;;;;;;5012749;28;20211;-82
2020/12/29 00:43:56;;;;;;;1.25;0.80;;;4.20;99.90;;;;;;5012833;28;20668;-83
2020/12/29 00:46:23;;;;;;;1.58;0.93;;;4.20;99.90;;;;;;5012728;28;20204;-82
2020/12/29 00:48:50;;;;;;;1.17;1.05;;;4.30;99.90;;;;;;5012559;28;20877;-82
2020/12/29 00:51:18;;;;;;;1.85;1.15;;;4.30;99.90;;;;;;5011626;28;20306;-82
2020/12/29 00:53:45;;;;;;;2.65;1.23;;;4.40;99.90;;;;;;5012636;28;20282;-81
2020/12/29 00:56:12;;;;;;;1.20;1.10;;;4.40;99.90;;;;;;5012751;28;20294;-81
2020/12/29 00:58:39;;;;;;;0.88;0.85;;;4.40;99.90;;;;;;5016017;28;20296;-82
2020/12/29 01:01:07;;;;;;;1.25;1.02;;;4.40;99.90;;;;;;5016452;28;20755;-81
2020/12/29 01:03:33;;;;;;;1.02;0.60;;;4.40;99.90;;;;;;5016169;28;20218;-81
2020/12/29 01:06:00;;;;;;;0.60;0.52;;;4.30;99.90;;;;;;5014582;28;20654;-82
2020/12/29 01:08:27;;;;;;;0.70;0.70;;;4.30;99.90;;;;;;5016071;28;20679;-82
2020/12/29 01:10:54;;;;;;;1.83;1.00;;;4.30;99.90;;;;;;5016322;28;20214;-82
2020/12/29 01:13:21;;;;;;;1.13;1.02;;;4.30;99.90;;;;;;5016299;28;20724;-82
2020/12/29 01:15:48;;;;;;;0.80;0.50;;;4.30;99.90;;;;;;5016295;28;20231;-83
2020/12/29 01:18:14;;;;;;;0.80;0.73;;;4.40;99.90;;;;;;5015884;28;20294;-83
2020/12/29 01:20:41;;;;;;;0.93;0.80;;;4.40;99.90;;;;;;5016039;28;20670;-84
2020/12/29 01:23:07;;;;;;;1.58;0.95;;;4.40;99.90;;;;;;5014934;28;20338;-83
2020/12/29 01:25:34;;;;;;;2.17;0.80;;;4.50;99.90;;;;;;5016030;28;20322;-82
2020/12/29 01:28:01;;;;;;;1.77;1.00;;;4.60;99.90;;;;;;5016148;28;20663;-82
2020/12/29 01:30:27;;;;;;;0.90;0.60;;;4.50;99.90;;;;;;5016103;28;20219;-83
2020/12/29 01:32:54;;;;;;;3.85;0.88;;;4.40;99.90;;;;;;5015615;28;20204;-82
2020/12/29 01:35:20;;;;;;;2.25;1.02;;;4.30;99.90;;;;;;5014765;28;20243;-83
2020/12/29 01:37:46;;;;;;;1.77;0.63;;;4.30;99.90;;;;;;5014885;28;20222;-83
2020/12/29 01:40:14;;;;;;;1.05;0.65;;;4.30;99.90;;;;;;5015820;28;20231;-82
2020/12/29 01:42:41;;;;;;;1.40;0.75;;;4.30;99.90;;;;;;5015717;28;20287;-83
2020/12/29 01:45:10;;;;;;;0.95;0.80;;;4.30;99.90;;;;;;5015742;28;20614;-83
2020/12/29 01:47:39;;;;;;;0.60;0.52;;;4.30;99.90;;;;;;5015530;28;20226;-83
2020/12/29 01:50:09;;;;;;;2.17;0.70;;;4.30;99.90;;;;;;5015668;28;20217;-82
2020/12/29 01:52:37;;;;;;;0.65;0.50;;;4.40;99.90;;;;;;5014399;28;20199;-82
2020/12/29 01:55:04;;;;;;;1.15;1.02;;;4.50;99.90;;;;;;5015373;28;20235;-83
2020/12/29 01:57:32;;;;;;;1.48;0.70;;;4.50;99.90;;;;;;5015257;28;20204;-80
2020/12/29 01:59:59;;;;;;;2.35;0.55;;;4.50;99.90;;;;;;5015517;28;20235;-81
2020/12/29 02:02:26;;;;;;;0.60;0.57;;;4.50;99.90;;;;;;5014158;28;20250;-80
2020/12/29 02:04:53;;;;;;;0.70;0.50;;;4.60;99.90;;;;;;5015281;28;20214;-80
2020/12/29 02:07:20;;;;;;;0.43;0.40;;;4.60;99.90;;;;;;5010544;28;20606;-80
2020/12/29 02:09:48;;;;;;;0.73;0.50;;;4.60;99.90;;;;;;5013857;28;20242;-80
2020/12/29 02:12:25;;;;;;;0.77;0.50;;;4.60;99.90;;;;;;5015175;28;20298;-81
2020/12/29 02:14:51;;;;;;;0.40;0.40;;;4.60;99.90;;;;;;5014842;28;20241;-81
2020/12/29 02:17:19;;;;;;;0.60;0.60;;;4.60;99.90;;;;;;5014149;28;20294;-80
2020/12/29 02:19:45;;;;;;;0.50;0.50;;;4.60;99.90;;;;;;5015105;28;20310;-80
2020/12/29 02:22:16;;;;;;;0.95;0.60;;;4.60;99.90;;;;;;5013496;28;20634;-80
2020/12/29 02:24:48;;;;;;;0.82;0.60;;;4.60;99.90;;;;;;5014871;28;20295;-81
2020/12/29 02:27:16;;;;;;;0.70;0.40;;;4.70;99.90;;;;;;5014845;28;20214;-80
2020/12/29 02:29:42;;;;;;;1.17;0.57;;;4.70;99.90;;;;;;5014825;28;20738;-80
2020/12/29 02:32:09;;;;;;;0.60;0.50;;;4.70;99.90;;;;;;5014805;28;20318;-80
2020/12/29 02:34:37;;;;;;;0.60;0.55;;;4.70;99.90;;;;;;5014550;28;20232;-80
2020/12/29 02:37:04;;;;;;;0.52;0.52;;;4.80;99.90;;;;;;5005541;28;20574;-81
2020/12/29 02:39:32;;;;;;;0.50;0.40;;;4.80;99.90;;;;;;5014669;28;20257;-80
2020/12/29 02:41:58;;;;;;;0.77;0.57;;;4.80;99.90;;;;;;5014710;28;20204;-81
2020/12/29 02:44:25;;;;;;;0.50;0.50;;;4.90;99.90;;;;;;5014704;28;20568;-81
2020/12/29 02:46:51;;;;;;;0.60;0.40;;;5.00;99.90;;;;;;5014504;28;20218;-81
2020/12/29 02:49:18;;;;;;;1.25;0.80;;;5.10;99.90;;;;;;5014298;28;20207;-82
2020/12/29 02:51:45;;;;;;;0.70;0.57;;;5.10;99.90;;;;;;5013017;28;20291;-81
2020/12/29 02:54:12;;;;;;;0.50;0.50;;;5.20;99.90;;;;;;5014445;28;20655;-81
2020/12/29 02:56:39;;;;;;;0.50;0.40;;;5.20;99.90;;;;;;5014285;28;20667;-81
2020/12/29 02:59:06;;;;;;;0.40;0.40;;;5.30;99.90;;;;;;5014383;28;20306;-81
2020/12/29 03:01:32;;;;;;;0.50;0.50;;;5.30;99.90;;;;;;5014432;28;20208;-81
2020/12/29 03:03:59;;;;;;;0.40;0.40;;;5.30;99.90;;;;;;5014192;28;20302;-82
2020/12/29 03:06:26;;;;;;;0.50;0.43;;;5.30;99.90;;;;;;5011320;28;20250;-81
2020/12/29 03:08:52;;;;;;;0.63;0.40;;;5.30;99.90;;;;;;5013923;28;20246;-81
2020/12/29 03:11:25;;;;;;;0.55;0.43;;;5.30;99.90;;;;;;5014172;28;20204;-82
2020/12/29 03:13:53;;;;;;;0.60;0.40;;;5.20;99.90;;;;;;4995485;28;20239;-80
2020/12/29 03:16:19;;;;;;;0.50;0.47;;;5.30;99.90;;;;;;5014151;28;20218;-82
2020/12/29 03:18:46;;;;;;;0.63;0.40;;;5.30;99.90;;;;;;5014088;28;20294;-82
2020/12/29 03:21:12;;;;;;;0.50;0.40;;;5.30;99.90;;;;;;5012135;28;20229;-81
2020/12/29 03:23:39;;;;;;;0.50;0.40;;;5.20;99.90;;;;;;5013875;28;20302;-83
2020/12/29 03:26:05;;;;;;;0.50;0.43;;;5.20;99.90;;;;;;5013810;28;20290;-83
2020/12/29 03:28:32;;;;;;;0.40;0.30;;;5.20;99.90;;;;;;5013793;28;20286;-83
2020/12/29 03:30:59;;;;;;;0.73;0.47;;;5.20;99.90;;;;;;5013657;28;20298;-83
2020/12/29 03:33:25;;;;;;;0.60;0.40;;;5.20;99.90;;;;;;5013647;28;20204;-84
2020/12/29 03:35:52;;;;;;;0.50;0.40;;;5.10;99.90;;;;;;5013587;28;20207;-83
2020/12/29 03:38:19;;;;;;;0.40;0.40;;;5.10;99.90;;;;;;5011017;28;20664;-81
2020/12/29 03:40:45;;;;;;;0.60;0.40;;;5.10;99.90;;;;;;5013675;28;20289;-81
2020/12/29 03:43:13;;;;;;;0.40;0.40;;;5.10;99.90;;;;;;5013716;28;20226;-81
2020/12/29 03:45:40;;;;;;;1.15;0.68;;;5.10;99.90;;;;;;5013396;28;20216;-81
2020/12/29 03:48:08;;;;;;;0.60;0.40;;;5.00;99.90;;;;;;5013707;28;20203;-81
2020/12/29 03:50:35;;;;;;;0.40;0.32;;;5.10;99.90;;;;;;5014278;28;20242;-80
2020/12/29 03:53:01;;;;;;;0.60;0.47;;;5.00;99.90;;;;;;5004170;28;20210;-81
2020/12/29 03:55:28;;;;;;;0.40;0.40;;;4.90;99.90;;;;;;5013214;28;20668;-82
2020/12/29 03:57:54;;;;;;;0.88;0.55;;;4.90;99.90;;;;;;5013357;28;20693;-81
2020/12/29 04:00:20;;;;;;;0.93;0.50;;;4.80;99.90;;;;;;5013398;28;20199;-84
2020/12/29 04:02:47;;;;;;;0.50;0.40;;;4.80;99.90;;;;;;5013320;28;20214;-83
2020/12/29 04:05:14;;;;;;;0.40;0.40;;;4.80;99.90;;;;;;5013166;28;20608;-83
2020/12/29 04:07:40;;;;;;;0.70;0.50;;;4.80;99.90;;;;;;5011531;28;20238;-83
2020/12/29 04:10:07;;;;;;;0.55;0.47;;;4.70;99.90;;;;;;5013339;28;20239;-83
2020/12/29 04:12:33;;;;;;;1.02;0.60;;;4.70;99.90;;;;;;5013091;28;20207;-83
2020/12/29 04:15:00;;;;;;;2.03;0.70;;;4.70;99.90;;;;;;5013095;28;20322;-84
2020/12/29 04:17:26;;;;;;;0.90;0.50;;;4.70;99.90;;;;;;5013072;28;20286;-83
2020/12/29 04:19:53;;;;;;;0.73;0.47;;;4.80;99.90;;;;;;5013146;28;20294;-83
2020/12/29 04:22:20;;;;;;;0.50;0.40;;;4.80;99.90;;;;;;5011708;28;20206;-84
2020/12/29 04:24:46;;;;;;;0.40;0.38;;;4.80;99.90;;;;;;5013155;28;20210;-84
2020/12/29 04:27:12;;;;;;;3.67;2.30;;;4.80;99.90;;;;;;5012867;28;20556;-83
2020/12/29 04:29:39;;;;;;;96.70;70.72;;;4.80;99.90;;;;;;5012658;28;20209;-84
2020/12/29 04:32:05;;;;;;;3.03;2.72;;;4.80;99.90;;;;;;5013715;28;20294;-84
2020/12/29 04:34:32;;;;;;;4.43;4.13;;;4.80;99.90;;;;;;5016949;28;20599;-84
2020/12/29 04:36:58;;;;;;;3.42;3.22;;;5.00;99.90;;;;;;5015311;28;20227;-84
2020/12/29 04:39:26;;;;;;;3.10;2.92;;;5.00;99.90;;;;;;5016947;28;20282;-84
2020/12/29 04:42:00;;;;;;;1.17;1.17;;;5.00;99.90;;;;;;5016588;28;20203;-84
2020/12/29 04:44:27;;;;;;;2.90;2.10;;;5.00;99.90;;;;;;5016931;28;20209;-84
2020/12/29 04:46:54;;;;;;;1.90;1.80;;;5.00;99.90;;;;;;5016889;28;20302;-84
2020/12/29 04:49:22;;;;;;;3.75;3.42;;;4.90;99.90;;;;;;5016810;28;20221;-83
2020/12/29 04:51:49;;;;;;;7.82;6.03;;;4.90;99.90;;;;;;5015267;28;20250;-84
2020/12/29 04:54:19;;;;;;;3.72;2.80;;;4.90;99.90;;;;;;5016649;28;20324;-84
2020/12/29 04:56:55;;;;;;;12.95;7.88;;;4.90;99.90;;;;;;5016592;28;20200;-83
2020/12/29 04:59:21;;;;;;;4.53;3.80;;;4.90;99.90;;;;;;5016458;28;20265;-83
2020/12/29 05:01:48;;;;;;;3.40;2.40;;;5.00;99.90;;;;;;5016491;28;20207;-83
2020/12/29 05:04:14;;;;;;;3.85;2.90;;;5.00;99.90;;;;;;5016431;28;20676;-83
2020/12/29 05:06:41;;;;;;;9.38;5.32;;;5.00;99.90;;;;;;5013876;28;20298;-84
2020/12/29 05:09:07;;;;;;;3.05;2.25;;;5.00;99.90;;;;;;5016236;28;20322;-84
2020/12/29 05:11:35;;;;;;;3.28;1.10;;;4.90;99.90;;;;;;5016248;28;20302;-85
2020/12/29 05:14:03;;;;;;;0.95;0.85;;;4.90;99.90;;;;;;5016300;28;20272;-84
2020/12/29 05:16:30;;;;;;;1.20;1.15;;;4.80;99.90;;;;;;5016104;28;20286;-84
2020/12/29 05:18:57;;;;;;;1.13;1.02;;;4.80;99.90;;;;;;5016263;28;20269;-83
2020/12/29 05:21:25;;;;;;;1.50;1.33;;;4.70;99.90;;;;;;5014662;28;20229;-83
2020/12/29 05:23:51;;;;;;;2.13;1.40;;;4.70;99.90;;;;;;5016044;28;20242;-85
2020/12/29 05:26:18;;;;;;;3.35;3.05;;;4.70;99.90;;;;;;5016042;28;20239;-84
2020/12/29 05:28:46;;;;;;;3.70;3.25;;;4.70;99.90;;;;;;5015916;28;20622;-84
2020/12/29 05:31:15;;;;;;;1.45;1.35;;;4.70;99.90;;;;;;5015941;28;20210;-83
2020/12/29 05:33:41;;;;;;;4.57;1.55;;;4.70;99.90;;;;;;5015853;28;20648;-85
2020/12/29 05:36:08;;;;;;;1.30;1.10;;;4.80;99.90;;;;;;5014555;28;20337;-83
2020/12/29 05:38:41;;;;;;;2.60;1.50;;;4.80;99.90;;;;;;5015616;28;20294;-84
2020/12/29 05:41:14;;;;;;;3.13;0.70;;;4.80;99.90;;;;;;5015872;28;20718;-85
2020/12/29 05:43:40;;;;;;;1.20;0.95;;;4.80;99.90;;;;;;5015578;28;20218;-84
2020/12/29 05:46:07;;;;;;;0.93;0.88;;;4.80;99.90;;;;;;5015800;28;20739;-84
2020/12/29 05:48:35;;;;;;;1.63;1.20;;;4.80;99.90;;;;;;5015683;28;20249;-83
2020/12/29 05:51:13;;;;;;;1.50;1.15;;;4.80;99.90;;;;;;5014778;28;20296;-91
2020/12/29 05:53:39;;;;;;;1.17;0.80;;;4.80;99.90;;;;;;5015298;28;20203;-84
2020/12/29 05:56:08;;;;;;;2.70;1.05;;;4.80;99.90;;;;;;5015263;28;20247;-86
2020/12/29 05:58:35;;;;;;;3.50;2.92;;;4.80;99.90;;;;;;5015652;28;20334;-84
2020/12/29 06:01:02;;;;;;;0.50;0.50;;;4.90;99.90;;;;;;5015504;28;20234;-82
2020/12/29 06:03:29;;;;;;;4.97;0.50;;;4.90;99.90;;;;;;5015416;28;20294;-82
2020/12/29 06:05:59;;;;;;;0.40;0.40;;;4.90;99.90;;;;;;5014516;28;20196;-83
2020/12/29 06:08:27;;;;;;;1.08;0.40;;;4.80;99.90;;;;;;5014358;28;20318;-82
2020/12/29 06:10:59;;;;;;;0.50;0.40;;;4.80;99.90;;;;;;5015248;28;20229;-82
2020/12/29 06:13:27;;;;;;;2.30;1.27;;;4.80;99.90;;;;;;5015320;28;20207;-83
2020/12/29 06:15:57;;;;;;;7.15;3.53;;;4.70;99.90;;;;;;5011956;28;20736;-83
2020/12/29 06:18:34;;;;;;;3.92;2.05;;;4.70;99.90;;;;;;5015144;28;20659;-83
2020/12/29 06:21:05;;;;;;;4.78;3.03;;;4.70;99.90;;;;;;5014379;28;20214;-84
2020/12/29 06:23:43;;;;;;;5.47;2.78;;;4.60;99.90;;;;;;5014963;28;20750;-82
2020/12/29 06:26:09;;;;;;;10.48;5.07;;;4.60;99.90;;;;;;5014826;28;20203;-84
2020/12/29 06:28:47;;;;;;;4.15;2.10;;;4.60;99.90;;;;;;5014949;28;20587;-83
2020/12/29 06:31:22;;;;;;;8.35;3.55;;;4.50;99.90;;;;;;5014911;28;20298;-85
2020/12/29 06:33:53;;;;;;;18.50;8.63;;;4.50;99.90;;;;;;5014784;28;20231;-83
2020/12/29 06:36:21;;;;;;;12.57;4.70;;;4.50;99.90;;;;;;5013267;28;20216;-84
2020/12/29 06:38:50;;;;;;;11.32;5.95;;;4.40;99.90;;;;;;5014705;28;20675;-84
2020/12/29 06:41:19;;;;;;;11.50;6.50;;;4.50;99.90;;;;;;5015664;28;20574;-82
2020/12/29 06:43:46;;;;;;;12.95;6.43;;;4.50;99.90;;;;;;5015096;28;20207;-84
2020/12/29 06:46:14;;;;;;;6.15;1.88;;;4.50;99.90;;;;;;5014497;28;20257;-83
2020/12/29 06:48:41;;;;;;;12.85;4.53;;;4.60;99.90;;;;;;5014396;28;20215;-83
2020/12/29 06:51:11;;;;;;;8.88;5.18;;;4.70;99.90;;;;;;5012930;28;20210;-84
2020/12/29 06:53:40;;;;;;;5.90;4.05;;;4.70;99.90;;;;;;5014318;28;20207;-85
2020/12/29 06:56:15;;;;;;;8.73;3.80;;;4.70;99.90;;;;;;5013973;28;20265;-83
2020/12/29 06:58:41;;;;;;;1.77;1.42;;;4.70;99.90;;;;;;5014300;28;20745;-86
2020/12/29 07:01:19;;;;;;;9.40;5.00;;;4.70;99.90;;;;;;5014287;28;20223;-85
2020/12/29 07:03:47;;;;;;;4.93;2.95;;;4.70;99.90;;;;;;5013165;28;20211;-82
2020/12/29 07:06:13;;;;;;;8.35;4.18;;;4.70;99.90;;;;;;5012573;28;20204;-83
2020/12/29 07:08:40;;;;;;;47.92;19.90;;;4.70;99.90;;;;;;5014181;28;20322;-81
2020/12/29 07:11:17;;;;;;;76.57;25.23;;;4.70;99.90;;;;;;5014080;28;20238;-81
2020/12/29 07:13:45;;;;;;;25.08;9.70;;;4.70;99.90;;;;;;5014032;28;20292;-81
2020/12/29 07:16:12;;;;;;;10.68;6.25;;;4.80;99.90;;;;;;5013887;28;20261;-81
2020/12/29 07:18:44;;;;;;;16.33;10.00;;;4.80;99.90;;;;;;5013989;28;20207;-82
2020/12/29 07:21:24;;;;;;;7.60;3.58;;;4.80;99.90;;;;;;5012534;28;20216;-81
2020/12/29 07:23:52;;;;;;;11.70;8.02;;;4.80;99.90;;;;;;5013881;28;20213;-83
2020/12/29 07:26:20;;;;;;;9.18;4.65;;;4.80;99.90;;;;;;5013938;28;20207;-81
2020/12/29 07:28:49;;;;;;;18.60;6.93;;;4.80;99.90;;;;;;5013765;28;20207;-82
2020/12/29 07:31:16;;;;;;;8.77;5.68;;;4.80;99.90;;;;;;5013692;28;20257;-83
2020/12/29 07:33:50;;;;;;;4.32;2.88;;;4.90;99.90;;;;;;5013481;28;20694;-81
2020/12/29 07:36:18;;;;;;;3.85;1.70;;;4.90;99.90;;;;;;5012171;28;20295;-82
2020/12/29 07:38:48;;;;;;;8.45;7.75;;;4.90;99.90;;;;;;5013629;28;20211;-82
2020/12/29 07:41:17;;;;;;;8.02;7.53;;;4.90;99.90;;;;;;5013579;28;20227;-81
2020/12/29 07:43:44;;;;;;;1.08;0.98;;;4.90;99.90;;;;;;5013694;28;20630;-83
2020/12/29 07:46:11;;;;;;;4.18;3.78;;;4.80;99.90;;;;;;5013656;28;20211;-82
2020/12/29 07:48:37;;;;;;;2.60;0.82;;;4.90;99.90;;;;;;5013556;28;20563;-82
2020/12/29 07:51:04;;;;;;;0.63;0.55;;;4.90;99.90;;;;;;5012062;28;20207;-83
2020/12/29 07:53:31;;;;;;;2.35;0.85;;;4.90;99.90;;;;;;5013480;28;20253;-82
2020/12/29 07:55:58;;;;;;;1.20;0.70;;;4.90;99.90;;;;;;5013161;28;20243;-82
2020/12/29 07:58:25;;;;;;;1.83;1.73;;;5.00;99.90;;;;;;5013363;28;20227;-82
2020/12/29 08:00:52;;;;;;;11.55;2.53;;;5.00;99.90;;;;;;5013267;28;20719;-82
2020/12/29 08:03:19;;;;;;;1.67;1.25;;;5.00;99.90;;;;;;5012088;28;20283;-82
2020/12/29 08:05:45;;;;;;;7.18;6.35;;;5.00;99.90;;;;;;5012623;28;20219;-81
2020/12/29 08:08:14;;;;;;;3.03;2.75;;;5.00;99.90;;;;;;5011125;28;20318;-81
2020/12/29 08:10:42;;;;;;;2.40;2.25;;;4.90;99.90;;;;;;5011797;28;20277;-82
2020/12/29 08:13:10;;;;;;;4.40;2.58;;;5.00;99.90;;;;;;5013181;28;20357;-81
2020/12/29 08:15:38;;;;;;;2.55;2.35;;;5.00;99.90;;;;;;5013123;28;20238;-81
2020/12/29 08:18:07;;;;;;;2.63;2.30;;;5.00;99.90;;;;;;5011985;28;20298;-81
2020/12/29 08:20:34;;;;;;;1.67;1.58;;;5.00;99.90;;;;;;5012620;28;20242;-81
2020/12/29 08:23:04;;;;;;;2.28;2.15;;;5.10;99.90;;;;;;5011593;28;20691;-82
2020/12/29 08:25:30;;;;;;;6.40;4.13;;;5.10;99.90;;;;;;5012012;28;20776;-81
2020/12/29 08:28:01;;;;;;;4.28;3.50;;;5.10;99.90;;;;;;5012909;28;20203;-81
2020/12/29 08:30:29;;;;;;;2.83;2.20;;;5.10;99.90;;;;;;5013047;28;20261;-82
2020/12/29 08:32:58;;;;;;;4.00;1.25;;;5.10;99.90;;;;;;5012947;28;20646;-79
2020/12/29 08:35:25;;;;;;;1.95;1.30;;;5.10;99.90;;;;;;5011752;28;20322;-83
2020/12/29 08:38:05;;;;;;;1.23;0.75;;;4.90;99.90;;;;;;5013281;28;20294;-82
2020/12/29 08:40:34;;;;;;;0.88;0.70;;;4.80;99.90;;;;;;5012686;28;20207;-81
2020/12/29 08:43:01;;;;;;;1.75;1.33;;;4.80;99.90;;;;;;5012901;28;20204;-82
2020/12/29 08:45:28;;;;;;;2.95;1.75;;;4.90;99.90;;;;;;5012887;28;20204;-82
2020/12/29 08:47:56;;;;;;;6.95;4.63;;;4.90;99.90;;;;;;5012833;28;20302;-82
2020/12/29 08:50:28;;;;;;;37.15;18.30;;;5.00;99.90;;;;;;5012517;28;20253;-82
2020/12/29 08:53:06;;;;;;;21.92;11.25;;;5.10;99.90;;;;;;5011646;28;20294;-81
2020/12/29 08:55:34;;;;;;;16.88;9.75;;;5.00;99.90;;;;;;5012682;28;20235;-82
2020/12/29 08:58:01;;;;;;;25.00;12.55;;;5.10;99.90;;;;;;5012640;28;20207;-82
2020/12/29 09:00:30;;;;;;;23.73;15.00;;;5.20;99.90;;;;;;5012602;28;20245;-82
2020/12/29 09:02:57;;;;;;;9.25;6.20;;;5.20;99.90;;;;;;5012441;28;20278;-83
2020/12/29 09:05:25;;;;;;;7.65;4.72;;;5.20;99.90;;;;;;5011265;28;20295;-83
2020/12/29 09:07:52;;;;;;;7.63;4.80;;;5.20;99.90;;;;;;5011237;28;20291;-80
2020/12/29 09:10:19;;;;;;;2.08;1.88;;;5.20;99.90;;;;;;5012554;28;20594;-82
2020/12/29 09:12:46;;;;;;;9.07;2.88;;;5.10;99.90;;;;;;5012445;28;20574;-84
2020/12/29 09:15:14;;;;;;;6.35;2.65;;;5.00;99.90;;;;;;5012340;28;20235;-81
2020/12/29 09:17:42;;;;;;;4.35;2.78;;;4.80;99.90;;;;;;5012626;28;20574;-81
2020/12/29 09:20:14;;;;;;;1.55;1.40;;;4.60;99.90;;;;;;5016124;28;20290;-81
2020/12/29 09:23:09;;;;;;;0.80;0.80;;;4.50;99.90;;;;;;5014919;28;20203;-82
2020/12/29 09:25:40;;;;;;;3.17;2.28;;;4.60;99.90;;;;;;5016023;28;20207;-81
2020/12/29 09:28:18;;;;;;;9.98;8.48;;;4.60;99.90;;;;;;5013100;28;20088;-81
2020/12/29 09:30:56;;;;;;;5.30;4.38;;;4.60;99.90;;;;;;5006858;28;20490;-83
2020/12/29 09:33:23;;;;;;;8.18;7.43;;;4.50;99.90;;;;;;4999121;28;20199;-82
2020/12/29 09:35:51;;;;;;;2.35;1.65;;;4.60;99.90;;;;;;5015265;28;20323;-83
2020/12/29 09:38:18;;;;;;;6.40;3.80;;;4.60;99.90;;;;;;5014023;28;20294;-83
2020/12/29 09:40:45;;;;;;;2.72;1.98;;;4.70;99.90;;;;;;5015371;28;20211;-83
2020/12/29 09:43:12;;;;;;;4.65;2.55;;;4.80;99.90;;;;;;5015184;28;20215;-82
2020/12/29 09:45:38;;;;;;;3.20;1.33;;;4.90;99.90;;;;;;5014991;28;20258;-81
2020/12/29 09:48:05;;;;;;;3.22;2.53;;;4.90;99.90;;;;;;5015164;28;20294;-81
2020/12/29 09:50:31;;;;;;;3.42;2.00;;;5.00;99.90;;;;;;5014780;28;20558;-80
2020/12/29 09:52:58;;;;;;;2.25;2.03;;;5.10;99.90;;;;;;5013658;28;20295;-81
2020/12/29 09:55:25;;;;;;;1.45;1.35;;;5.20;99.90;;;;;;5014688;28;20466;-80
2020/12/29 09:57:51;;;;;;;2.05;1.70;;;5.30;99.90;;;;;;5014902;28;20538;-81
2020/12/29 10:00:17;;;;;;;14.80;10.95;;;5.30;99.90;;;;;;5014949;28;20200;-82
2020/12/29 10:02:44;;;;;;;3.83;2.90;;;5.30;99.90;;;;;;5014916;28;20257;-83
2020/12/29 10:05:10;;;;;;;20.95;13.40;;;5.40;99.90;;;;;;5014546;28;20257;-82
2020/12/29 10:07:37;;;;;;;10.63;9.63;;;5.40;99.90;;;;;;5013481;28;20686;-81
2020/12/29 10:10:04;;;;;;;3.42;2.97;;;5.40;99.90;;;;;;5015134;28;20709;-82
2020/12/29 10:12:31;;;;;;;2.92;2.72;;;5.50;99.90;;;;;;5014749;28;20635;-82
2020/12/29 10:14:57;;;;;;;0.95;0.85;;;5.40;99.90;;;;;;5014579;28;20730;-81
2020/12/29 10:17:23;;;;;;;2.10;2.00;;;5.40;99.90;;;;;;5014597;28;20235;-81
2020/12/29 10:19:50;;;;;;;1.25;0.93;;;5.40;99.90;;;;;;5014242;28;20291;-81
2020/12/29 10:22:16;;;;;;;0.70;0.70;;;5.50;99.90;;;;;;5013424;28;20291;-81
2020/12/29 10:24:43;;;;;;;3.25;2.90;;;5.60;99.90;;;;;;5014348;28;20366;-81
2020/12/29 10:27:10;;;;;;;1.30;1.20;;;5.60;99.90;;;;;;5014271;28;20239;-81
2020/12/29 10:29:36;;;;;;;1.67;1.58;;;5.70;99.90;;;;;;5013401;28;20796;-91
2020/12/29 10:32:03;;;;;;;4.68;3.40;;;5.80;99.90;;;;;;5014301;28;20298;-85
2020/12/29 10:34:29;;;;;;;2.63;2.08;;;5.70;99.90;;;;;;5012861;28;20235;-83
2020/12/29 10:36:56;;;;;;;1.45;1.35;;;5.70;99.90;;;;;;5013026;28;20677;-86
2020/12/29 10:39:22;;;;;;;0.80;0.80;;;5.70;99.90;;;;;;5014153;28;20262;-84
2020/12/29 10:41:48;;;;;;;2.03;1.83;;;5.70;99.90;;;;;;5014280;28;20210;-83
2020/12/29 10:44:16;;;;;;;4.07;1.95;;;5.60;99.90;;;;;;5014096;28;20306;-81
2020/12/29 10:46:46;;;;;;;3.38;2.05;;;5.50;99.90;;;;;;5011160;28;20204;-81
2020/12/29 10:49:12;;;;;;;1.90;0.75;;;5.60;99.90;;;;;;5013378;28;20667;-83
2020/12/29 10:51:39;;;;;;;19.60;12.20;;;5.70;99.90;;;;;;5012711;28;20287;-83
2020/12/29 10:54:05;;;;;;;4.68;2.50;;;5.80;99.90;;;;;;5013943;28;20231;-82
2020/12/29 10:56:32;;;;;;;10.15;6.60;;;5.80;99.90;;;;;;5013911;28;20286;-81
2020/12/29 10:58:58;;;;;;;10.52;7.43;;;5.90;99.90;;;;;;5015391;28;20314;-85
2020/12/29 11:01:26;;;;;;;9.70;6.82;;;5.90;99.90;;;;;;5014362;28;20211;-82
2020/12/29 11:03:52;;;;;;;7.25;4.25;;;6.10;99.90;;;;;;5012586;28;20675;-82
2020/12/29 11:06:20;;;;;;;4.38;3.08;;;6.30;99.90;;;;;;5012614;28;20203;-82
2020/12/29 11:08:47;;;;;;;2.22;1.15;;;6.40;99.90;;;;;;5013811;28;20326;-82
2020/12/29 11:11:14;;;;;;;3.00;1.30;;;6.40;99.90;;;;;;5013771;28;20754;-82
2020/12/29 11:13:41;;;;;;;3.33;1.50;;;6.30;99.90;;;;;;5013846;28;20291;-80
2020/12/29 11:16:12;;;;;;;3.55;1.20;;;6.20;99.90;;;;;;5013568;28;20242;-80
2020/12/29 11:18:40;;;;;;;1.17;1.05;;;6.10;99.90;;;;;;5013561;28;20231;-82
2020/12/29 11:21:06;;;;;;;0.95;0.63;;;6.30;99.90;;;;;;5012653;28;20255;-81
2020/12/29 11:23:32;;;;;;;0.98;0.77;;;6.20;99.90;;;;;;5013689;28;20294;-83
2020/12/29 11:25:59;;;;;;;1.20;1.00;;;6.20;99.90;;;;;;5010529;28;20217;-82
2020/12/29 11:28:25;;;;;;;2.28;2.08;;;6.40;99.90;;;;;;5013538;28;20290;-82
2020/12/29 11:30:52;;;;;;;1.52;1.25;;;6.40;99.90;;;;;;5013413;28;20401;-82
2020/12/29 11:33:18;;;;;;;1.80;1.70;;;6.40;99.90;;;;;;5013501;28;20231;-82
2020/12/29 11:35:47;;;;;;;2.13;1.90;;;6.40;99.90;;;;;;5013090;28;20377;-82
2020/12/29 11:38:14;;;;;;;1.00;0.90;;;6.70;99.90;;;;;;5012196;28;20203;-82
2020/12/29 11:40:41;;;;;;;1.70;1.20;;;6.60;99.90;;;;;;5013014;28;20639;-82
2020/12/29 11:43:10;;;;;;;1.15;1.05;;;6.70;99.90;;;;;;5013637;28;20294;-92
2020/12/29 11:45:36;;;;;;;0.95;0.95;;;6.80;99.90;;;;;;5013874;28;20597;-84
2020/12/29 11:48:03;;;;;;;1.13;1.02;;;6.90;99.90;;;;;;5013142;28;20393;-82
2020/12/29 11:50:32;;;;;;;1.20;0.73;;;6.70;99.90;;;;;;5013059;28;20208;-85
2020/12/29 11:52:59;;;;;;;1.17;0.98;;;6.60;99.90;;;;;;4994541;28;20936;-83
2020/12/29 11:55:25;;;;;;;0.85;0.82;;;6.50;99.90;;;;;;4993536;28;20232;-83
2020/12/29 11:57:52;;;;;;;2.25;1.10;;;6.40;99.90;;;;;;4993551;28;20730;-86
2020/12/29 12:00:19;;;;;;;1.50;1.27;;;6.30;99.90;;;;;;4993772;28;20606;-83
2020/12/29 12:02:45;;;;;;;3.17;2.55;;;6.30;99.90;;;;;;4993600;28;20672;-82
2020/12/29 12:05:12;;;;;;;2.05;1.38;;;6.40;99.90;;;;;;5000237;28;20293;-83
2020/12/29 12:07:41;;;;;;;6.45;1.65;;;6.50;99.90;;;;;;5011927;28;20226;-84
2020/12/29 12:10:09;;;;;;;1.15;1.00;;;6.60;99.90;;;;;;5013399;28;20291;-84
2020/12/29 12:12:36;;;;;;;2.47;1.50;;;6.70;99.90;;;;;;5013116;28;20566;-84
2020/12/29 12:15:03;;;;;;;3.28;1.60;;;6.70;99.90;;;;;;5012963;28;20223;-84
2020/12/29 12:17:29;;;;;;;2.15;1.02;;;6.50;99.90;;;;;;5012976;28;20207;-84
2020/12/29 12:19:56;;;;;;;12.13;5.65;;;6.60;99.90;;;;;;5012872;28;20231;-84
2020/12/29 12:22:22;;;;;;;1.83;1.00;;;6.50;99.90;;;;;;5011761;28;20297;-84
2020/12/29 12:24:48;;;;;;;7.22;4.07;;;6.70;99.90;;;;;;5012942;28;20604;-84
2020/12/29 12:27:16;;;;;;;32.67;16.77;;;6.80;99.90;;;;;;5012783;28;20246;-84
2020/12/29 12:29:42;;;;;;;16.23;10.65;;;6.90;99.90;;;;;;5012893;28;20242;-83
2020/12/29 12:32:08;;;;;;;1.50;1.40;;;6.90;99.90;;;;;;5013016;28;20222;-84
2020/12/29 12:34:35;;;;;;;17.73;8.90;;;7.00;99.90;;;;;;5011515;28;20259;-83
2020/12/29 12:37:01;;;;;;;1.75;1.13;;;7.00;99.90;;;;;;5011496;28;20533;-84
2020/12/29 12:39:33;;;;;;;0.90;0.90;;;7.00;99.90;;;;;;5012658;28;20207;-83
2020/12/29 12:42:00;;;;;;;24.23;13.98;;;7.10;99.90;;;;;;5012696;28;20307;-83
2020/12/29 12:44:27;;;;;;;42.93;23.60;;;7.20;99.90;;;;;;5012656;28;20238;-83
2020/12/29 12:46:53;;;;;;;34.80;20.60;;;7.20;99.90;;;;;;5012591;28;20549;-83
2020/12/29 12:49:20;;;;;;;37.20;20.87;;;7.00;99.90;;;;;;5012301;28;20509;-82
2020/12/29 12:51:47;;;;;;;12.45;6.78;;;7.00;99.90;;;;;;5011353;28;20462;-83
2020/12/29 12:54:14;;;;;;;41.72;18.80;;;7.20;99.90;;;;;;5015115;28;20213;-83
2020/12/29 12:56:42;;;;;;;9.63;5.53;;;7.20;99.90;;;;;;5016648;28;20269;-84
2020/12/29 12:59:10;;;;;;;9.23;5.30;;;7.40;99.90;;;;;;5016546;28;20462;-84